createdAt,value
2018-07-30T00:00:47.409Z,6.40
2018-07-30T00:02:59.693Z,6.30
2018-07-30T00:05:12.324Z,7.00
2018-07-30T00:07:24.498Z,6.47
2018-07-30T00:09:36.709Z,7.33
2018-07-30T00:11:48.899Z,7.20
2018-07-30T00:14:01.107Z,6.43
2018-07-30T00:16:13.331Z,7.03
2018-07-30T00:18:25.523Z,6.63
2018-07-30T00:20:37.761Z,7.73
2018-07-30T00:22:49.943Z,7.03
2018-07-30T00:25:02.172Z,7.17
2018-07-30T00:27:14.350Z,6.77
2018-07-30T00:29:26.563Z,6.87
2018-07-30T00:31:38.711Z,7.00
2018-07-30T00:33:50.924Z,7.07
2018-07-30T00:36:03.167Z,7.63
2018-07-30T00:38:15.351Z,6.80
2018-07-30T00:40:27.608Z,6.90
2018-07-30T00:42:39.814Z,7.13
2018-07-30T00:44:52.038Z,7.00
2018-07-30T00:47:04.271Z,6.60
2018-07-30T00:49:16.436Z,6.20
2018-07-30T00:51:28.943Z,6.70
2018-07-30T00:53:41.158Z,5.57
2018-07-30T00:55:53.464Z,5.93
2018-07-30T00:58:05.691Z,5.90
2018-07-30T01:00:17.974Z,6.03
2018-07-30T01:02:30.207Z,6.30
2018-07-30T01:04:42.412Z,6.90
2018-07-30T01:06:54.696Z,7.07
2018-07-30T01:09:08.263Z,6.13
2018-07-30T01:11:20.544Z,5.23
2018-07-30T01:13:32.770Z,5.90
2018-07-30T01:15:44.963Z,6.90
2018-07-30T01:17:57.275Z,6.80
2018-07-30T01:20:09.456Z,6.70
2018-07-30T01:22:21.673Z,6.90
2018-07-30T01:24:33.865Z,7.10
2018-07-30T01:26:46.091Z,6.63
2018-07-30T01:28:59.080Z,6.87
2018-07-30T01:31:11.258Z,7.20
2018-07-30T01:33:23.522Z,7.10
2018-07-30T01:35:35.724Z,6.27
2018-07-30T01:37:47.926Z,5.93
2018-07-30T01:40:00.138Z,5.73
2018-07-30T01:42:12.306Z,6.97
2018-07-30T01:44:24.514Z,6.63
2018-07-30T01:46:36.706Z,6.67
2018-07-30T01:48:48.947Z,6.97
2018-07-30T01:51:01.159Z,6.67
2018-07-30T01:53:13.500Z,6.57
2018-07-30T01:55:25.763Z,7.20
2018-07-30T01:57:37.947Z,6.57
2018-07-30T01:59:50.157Z,6.90
2018-07-30T02:02:02.356Z,7.57
2018-07-30T02:04:14.590Z,6.33
2018-07-30T02:06:26.807Z,7.87
2018-07-30T02:08:39.041Z,8.03
2018-07-30T02:10:51.318Z,7.47
2018-07-30T02:13:03.547Z,7.60
2018-07-30T02:15:16.480Z,7.03
2018-07-30T02:17:28.654Z,8.10
2018-07-30T02:19:40.826Z,8.40
2018-07-30T02:21:53.027Z,7.53
2018-07-30T02:24:05.315Z,8.03
2018-07-30T02:26:17.515Z,7.33
2018-07-30T02:28:29.818Z,6.87
2018-07-30T02:30:42.007Z,6.33
2018-07-30T02:32:54.204Z,8.00
2018-07-30T02:35:07.406Z,7.80
2018-07-30T02:37:19.674Z,7.93
2018-07-30T02:39:31.886Z,6.77
2018-07-30T02:41:44.097Z,7.83
2018-07-30T02:43:56.282Z,8.03
2018-07-30T02:46:08.439Z,7.00
2018-07-30T02:48:20.639Z,7.40
2018-07-30T02:50:32.865Z,7.90
2018-07-30T02:52:45.072Z,7.20
2018-07-30T02:54:57.336Z,8.00
2018-07-30T02:57:09.540Z,8.00
2018-07-30T02:59:21.783Z,8.03
2018-07-30T03:01:33.998Z,8.20
2018-07-30T03:03:46.202Z,8.07
2018-07-30T03:05:58.388Z,7.80
2018-07-30T03:08:10.694Z,8.30
2018-07-30T03:10:22.875Z,7.83
2018-07-30T03:12:35.147Z,7.87
2018-07-30T03:14:47.333Z,7.93
2018-07-30T03:16:59.542Z,7.87
2018-07-30T03:19:11.763Z,8.23
2018-07-30T03:21:23.931Z,7.90
2018-07-30T03:23:36.127Z,6.57
2018-07-30T03:25:48.681Z,8.07
2018-07-30T03:28:00.919Z,7.57
2018-07-30T03:30:13.104Z,7.83
2018-07-30T03:32:25.329Z,8.00
2018-07-30T03:34:37.539Z,8.20
2018-07-30T03:36:49.763Z,8.37
2018-07-30T03:39:02.017Z,8.87
2018-07-30T03:41:14.226Z,8.17
2018-07-30T03:43:26.446Z,8.63
2018-07-30T03:45:38.627Z,8.10
2018-07-30T03:47:50.831Z,8.63
2018-07-30T03:50:03.180Z,8.40
2018-07-30T03:52:15.377Z,8.27
2018-07-30T03:54:27.577Z,8.83
2018-07-30T03:56:39.757Z,8.00
2018-07-30T03:58:52.522Z,8.53
2018-07-30T04:01:04.729Z,8.03
2018-07-30T04:03:16.966Z,8.80
2018-07-30T04:05:29.182Z,7.77
2018-07-30T04:07:41.403Z,8.90
2018-07-30T04:09:53.610Z,8.13
2018-07-30T04:12:05.959Z,7.80
2018-07-30T04:14:18.187Z,8.43
2018-07-30T04:16:34.366Z,6.80
2018-07-30T04:18:46.539Z,9.73
2018-07-30T04:20:58.767Z,10.00
2018-07-30T04:23:10.961Z,8.43
2018-07-30T04:25:23.190Z,8.83
2018-07-30T04:27:35.420Z,8.70
2018-07-30T04:29:47.651Z,9.23
2018-07-30T04:31:59.921Z,7.43
2018-07-30T04:34:12.144Z,7.83
2018-07-30T04:36:24.359Z,7.53
2018-07-30T04:38:36.567Z,7.53
2018-07-30T04:40:48.777Z,9.30
2018-07-30T04:43:01.213Z,8.00
2018-07-30T04:45:13.473Z,7.33
2018-07-30T04:47:25.700Z,8.70
2018-07-30T04:49:37.879Z,7.93
2018-07-30T04:51:50.099Z,8.50
2018-07-30T04:54:02.359Z,8.73
2018-07-30T04:56:14.549Z,8.73
2018-07-30T04:58:26.731Z,9.50
2018-07-30T05:00:39.023Z,10.67
2018-07-30T05:02:51.223Z,9.03
2018-07-30T05:05:04.184Z,7.70
2018-07-30T05:07:16.415Z,8.17
2018-07-30T05:09:28.582Z,5.90
2018-07-30T05:11:40.796Z,8.13
2018-07-30T05:13:52.968Z,7.03
2018-07-30T05:16:05.235Z,7.53
2018-07-30T05:18:17.655Z,7.07
2018-07-30T05:20:29.865Z,6.90
2018-07-30T05:22:42.083Z,6.70
2018-07-30T05:24:54.324Z,5.47
2018-07-30T05:27:06.512Z,5.80
2018-07-30T05:29:18.699Z,7.40
2018-07-30T05:31:31.019Z,8.27
2018-07-30T05:33:43.207Z,7.00
2018-07-30T05:35:55.401Z,6.97
2018-07-30T05:38:07.652Z,8.37
2018-07-30T05:40:19.815Z,6.00
2018-07-30T05:42:32.263Z,7.50
2018-07-30T05:44:44.511Z,7.80
2018-07-30T05:46:56.725Z,8.43
2018-07-30T05:49:09.003Z,8.30
2018-07-30T05:51:21.250Z,7.70
2018-07-30T05:53:33.504Z,7.83
2018-07-30T05:55:45.678Z,7.50
2018-07-30T05:57:58.153Z,7.63
2018-07-30T06:00:10.517Z,7.17
2018-07-30T06:02:22.894Z,7.80
2018-07-30T06:04:35.246Z,7.03
2018-07-30T06:06:48.768Z,6.90
2018-07-30T06:09:01.291Z,7.50
2018-07-30T06:11:13.846Z,7.27
2018-07-30T06:13:26.289Z,8.50
2018-07-30T06:15:38.499Z,7.47
2018-07-30T06:17:50.727Z,7.83
2018-07-30T06:20:03.664Z,7.97
2018-07-30T06:22:15.844Z,7.47
2018-07-30T06:24:28.039Z,7.77
2018-07-30T06:26:40.291Z,7.10
2018-07-30T06:28:52.511Z,7.63
2018-07-30T06:31:04.743Z,8.30
2018-07-30T06:33:16.970Z,8.13
2018-07-30T06:35:29.170Z,6.83
2018-07-30T06:37:41.355Z,7.20
2018-07-30T06:39:53.630Z,7.30
2018-07-30T06:42:05.844Z,7.73
2018-07-30T06:44:18.049Z,7.37
2018-07-30T06:46:30.294Z,7.07
2018-07-30T06:48:42.526Z,7.33
2018-07-30T06:50:54.767Z,7.60
2018-07-30T06:53:06.982Z,6.70
2018-07-30T06:55:19.296Z,6.87
2018-07-30T06:57:31.516Z,7.70
2018-07-30T06:59:43.712Z,7.20
2018-07-30T07:01:56.030Z,7.93
2018-07-30T07:04:08.462Z,6.97
2018-07-30T07:06:20.727Z,6.63
2018-07-30T07:08:32.927Z,7.43
2018-07-30T07:10:45.181Z,7.10
2018-07-30T07:12:57.389Z,6.87
2018-07-30T07:15:11.848Z,7.20
2018-07-30T07:17:24.060Z,6.47
2018-07-30T07:19:36.419Z,7.67
2018-07-30T07:21:48.674Z,7.33
2018-07-30T07:24:01.247Z,7.70
2018-07-30T07:26:13.510Z,7.23
2018-07-30T07:28:25.725Z,7.37
2018-07-30T07:30:37.980Z,6.47
2018-07-30T07:32:50.446Z,7.70
2018-07-30T07:35:02.851Z,7.27
2018-07-30T07:37:15.048Z,7.67
2018-07-30T07:39:27.514Z,6.95
2018-07-30T07:41:39.957Z,7.03
2018-07-30T07:43:52.271Z,6.50
2018-07-30T07:46:04.450Z,7.45
2018-07-30T07:48:16.755Z,7.05
2018-07-30T07:50:28.969Z,5.92
2018-07-30T07:52:41.187Z,6.67
2018-07-30T07:54:53.428Z,6.92
2018-07-30T07:57:05.694Z,7.60
2018-07-30T07:59:18.638Z,6.83
2018-07-30T08:01:31.046Z,6.70
2018-07-30T08:03:43.650Z,6.25
2018-07-30T08:05:55.909Z,6.45
2018-07-30T08:08:08.171Z,6.45
2018-07-30T08:10:20.447Z,6.25
2018-07-30T08:12:33.083Z,6.65
2018-07-30T08:14:45.569Z,7.22
2018-07-30T08:16:58.384Z,6.60
2018-07-30T08:19:10.961Z,6.35
2018-07-30T08:21:23.260Z,7.03
2018-07-30T08:23:35.503Z,6.10
2018-07-30T08:25:47.769Z,6.28
2018-07-30T08:27:59.991Z,6.67
2018-07-30T08:30:12.308Z,7.12
2018-07-30T08:32:24.522Z,6.70
2018-07-30T08:34:36.743Z,6.40
2018-07-30T08:36:49.092Z,6.17
2018-07-30T08:39:01.275Z,6.45
2018-07-30T08:41:13.591Z,5.75
2018-07-30T08:43:25.859Z,6.62
2018-07-30T08:45:38.155Z,6.17
2018-07-30T08:47:50.498Z,6.40
2018-07-30T08:50:03.135Z,5.85
2018-07-30T08:52:15.390Z,6.60
2018-07-30T08:54:27.643Z,6.00
2018-07-30T08:56:39.860Z,6.12
2018-07-30T08:58:52.412Z,5.95
2018-07-30T09:01:04.690Z,5.80
2018-07-30T09:03:16.938Z,6.40
2018-07-30T09:05:29.179Z,6.17
2018-07-30T09:07:41.407Z,6.70
2018-07-30T09:09:53.775Z,5.97
2018-07-30T09:12:06.051Z,5.92
2018-07-30T09:14:18.278Z,6.35
2018-07-30T09:16:30.508Z,6.10
2018-07-30T09:18:42.723Z,5.90
2018-07-30T09:20:54.979Z,6.28
2018-07-30T09:23:07.188Z,5.97
2018-07-30T09:25:19.366Z,6.17
2018-07-30T09:27:31.619Z,5.80
2018-07-30T09:29:43.817Z,5.55
2018-07-30T09:31:56.129Z,5.75
2018-07-30T09:34:08.640Z,5.80
2018-07-30T09:36:22.658Z,5.92
2018-07-30T09:38:35.034Z,5.47
2018-07-30T09:40:47.253Z,5.25
2018-07-30T09:42:59.483Z,5.60
2018-07-30T09:45:11.713Z,5.22
2018-07-30T09:47:23.922Z,5.25
2018-07-30T09:49:36.150Z,5.50
2018-07-30T09:51:48.415Z,5.58
2018-07-30T09:54:00.631Z,5.15
2018-07-30T09:56:12.895Z,5.60
2018-07-30T09:58:25.092Z,5.00
2018-07-30T10:00:42.994Z,5.33
2018-07-30T10:02:55.287Z,5.15
2018-07-30T10:05:07.577Z,4.60
2018-07-30T10:07:19.782Z,4.80
2018-07-30T10:09:32.039Z,5.10
2018-07-30T10:11:44.312Z,5.10
2018-07-30T10:13:56.522Z,5.05
2018-07-30T10:16:08.714Z,4.75
2018-07-30T10:18:21.059Z,4.92
2018-07-30T10:20:33.234Z,4.67
2018-07-30T10:22:45.491Z,5.10
2018-07-30T10:24:57.759Z,4.53
2018-07-30T10:27:09.951Z,5.22
2018-07-30T10:29:22.209Z,4.78
2018-07-30T10:31:34.434Z,4.60
2018-07-30T10:33:46.665Z,4.50
2018-07-30T10:35:58.963Z,4.50
2018-07-30T10:38:11.206Z,4.67
2018-07-30T10:40:23.431Z,4.42
2018-07-30T10:42:35.666Z,4.40
2018-07-30T10:44:47.899Z,4.40
2018-07-30T10:47:00.131Z,4.30
2018-07-30T10:49:12.351Z,4.47
2018-07-30T10:51:24.559Z,5.12
2018-07-30T10:53:36.769Z,4.45
2018-07-30T10:55:48.982Z,4.72
2018-07-30T10:58:01.179Z,4.70
2018-07-30T11:00:13.457Z,4.60
2018-07-30T11:02:25.660Z,4.55
2018-07-30T11:04:39.650Z,4.22
2018-07-30T11:06:51.845Z,4.37
2018-07-30T11:09:06.846Z,4.70
2018-07-30T11:11:19.122Z,4.50
2018-07-30T11:13:31.328Z,4.30
2018-07-30T11:15:43.564Z,4.87
2018-07-30T11:17:55.830Z,4.50
2018-07-30T11:20:08.028Z,4.78
2018-07-30T11:22:20.255Z,4.55
2018-07-30T11:24:33.082Z,4.97
2018-07-30T11:26:45.358Z,4.55
2018-07-30T11:28:57.579Z,5.00
2018-07-30T11:31:09.802Z,4.85
2018-07-30T11:33:22.054Z,4.58
2018-07-30T11:35:34.642Z,4.42
2018-07-30T11:37:46.893Z,4.67
2018-07-30T11:39:59.112Z,4.65
2018-07-30T11:42:11.332Z,4.90
2018-07-30T11:44:23.588Z,4.33
2018-07-30T11:46:35.807Z,4.60
2018-07-30T11:48:48.084Z,4.05
2018-07-30T11:51:01.052Z,4.45
2018-07-30T11:53:13.316Z,5.00
2018-07-30T11:55:25.766Z,4.75
2018-07-30T11:57:37.994Z,4.40
2018-07-30T11:59:50.229Z,4.80
2018-07-30T12:02:02.526Z,4.42
2018-07-30T12:04:14.794Z,4.83
2018-07-30T12:06:27.053Z,4.28
2018-07-30T12:08:39.318Z,4.35
2018-07-30T12:10:51.863Z,4.90
2018-07-30T12:13:04.090Z,5.05
2018-07-30T12:15:16.341Z,4.78
2018-07-30T12:17:28.562Z,4.70
2018-07-30T12:19:40.887Z,4.58
2018-07-30T12:21:53.220Z,4.50
2018-07-30T12:24:05.459Z,4.50
2018-07-30T12:26:17.769Z,4.90
2018-07-30T12:28:29.995Z,4.45
2018-07-30T12:30:42.286Z,4.22
2018-07-30T12:32:54.455Z,4.53
2018-07-30T12:35:06.701Z,4.40
2018-07-30T12:37:18.922Z,4.28
2018-07-30T12:39:31.208Z,4.78
2018-07-30T12:41:43.412Z,4.92
2018-07-30T12:43:55.611Z,4.53
2018-07-30T12:46:07.903Z,4.33
2018-07-30T12:48:20.146Z,5.35
2018-07-30T12:50:32.502Z,5.30
2018-07-30T12:52:44.699Z,4.92
2018-07-30T12:54:56.924Z,5.20
2018-07-30T12:57:09.145Z,5.22
2018-07-30T12:59:21.338Z,4.95
2018-07-30T13:01:33.583Z,4.47
2018-07-30T13:03:45.876Z,4.65
2018-07-30T13:05:58.181Z,4.47
2018-07-30T13:08:10.467Z,4.47
2018-07-30T13:10:22.702Z,4.78
2018-07-30T13:12:34.914Z,5.05
2018-07-30T13:14:47.159Z,4.85
2018-07-30T13:16:59.396Z,5.22
2018-07-30T13:19:11.631Z,4.95
2018-07-30T13:21:23.871Z,4.55
2018-07-30T13:23:36.091Z,4.80
2018-07-30T13:25:48.287Z,4.55
2018-07-30T13:28:00.566Z,4.97
2018-07-30T13:30:12.811Z,5.03
2018-07-30T13:32:25.020Z,4.80
2018-07-30T13:34:37.231Z,5.20
2018-07-30T13:36:49.467Z,5.25
2018-07-30T13:39:01.700Z,4.65
2018-07-30T13:41:13.979Z,5.10
2018-07-30T13:43:26.224Z,5.40
2018-07-30T13:45:38.409Z,5.33
2018-07-30T13:47:50.636Z,5.35
2018-07-30T13:50:03.053Z,4.92
2018-07-30T13:52:15.282Z,5.75
2018-07-30T13:54:27.555Z,4.78
2018-07-30T13:56:39.737Z,4.78
2018-07-30T13:58:51.922Z,5.03
2018-07-30T14:01:04.319Z,5.20
2018-07-30T14:03:16.551Z,5.17
2018-07-30T14:05:28.791Z,5.35
2018-07-30T14:07:41.038Z,5.55
2018-07-30T14:09:53.330Z,5.62
2018-07-30T14:12:05.871Z,5.15
2018-07-30T14:14:18.076Z,5.47
2018-07-30T14:16:30.420Z,5.03
2018-07-30T14:18:42.638Z,5.30
2018-07-30T14:20:54.956Z,5.17
2018-07-30T14:23:07.271Z,5.58
2018-07-30T14:25:19.511Z,5.33
2018-07-30T14:27:31.782Z,5.55
2018-07-30T14:29:44.015Z,5.37
2018-07-30T14:31:56.240Z,5.05
2018-07-30T14:34:08.524Z,5.72
2018-07-30T14:36:20.777Z,5.60
2018-07-30T14:38:33.016Z,4.60
2018-07-30T14:40:45.300Z,6.08
2018-07-30T14:42:57.516Z,5.35
2018-07-30T14:45:09.717Z,4.95
2018-07-30T14:47:21.970Z,5.22
2018-07-30T14:49:34.204Z,5.22
2018-07-30T14:51:46.477Z,5.55
2018-07-30T14:53:58.694Z,4.42
2018-07-30T14:56:10.963Z,4.97
2018-07-30T14:58:23.322Z,5.55
2018-07-30T15:00:35.530Z,5.70
2018-07-30T15:02:47.769Z,5.25
2018-07-30T15:05:00.015Z,4.85
2018-07-30T15:07:12.331Z,5.97
2018-07-30T15:09:24.527Z,5.65
2018-07-30T15:11:37.247Z,5.20
2018-07-30T15:13:49.609Z,5.72
2018-07-30T15:16:01.817Z,5.12
2018-07-30T15:18:14.754Z,5.47
2018-07-30T15:20:27.015Z,4.85
2018-07-30T15:22:39.231Z,5.40
2018-07-30T15:24:51.553Z,5.25
2018-07-30T15:27:03.808Z,5.33
2018-07-30T15:29:16.024Z,5.12
2018-07-30T15:31:28.222Z,5.78
2018-07-30T15:33:40.480Z,5.25
2018-07-30T15:35:52.695Z,5.33
2018-07-30T15:38:04.919Z,5.00
2018-07-30T15:40:17.150Z,5.50
2018-07-30T15:42:29.400Z,5.47
2018-07-30T15:44:41.659Z,5.40
2018-07-30T15:46:53.942Z,5.00
2018-07-30T15:49:06.106Z,5.55
2018-07-30T15:51:18.336Z,5.50
2018-07-30T15:53:30.598Z,5.05
2018-07-30T15:55:42.820Z,5.37
2018-07-30T15:57:55.023Z,5.47
2018-07-30T16:00:07.953Z,5.62
2018-07-30T16:06:56.273Z,5.67
2018-07-30T16:09:08.466Z,4.70
2018-07-30T16:11:20.750Z,5.45
2018-07-30T16:13:32.996Z,5.62
2018-07-30T16:15:45.236Z,4.90
2018-07-30T16:17:57.510Z,4.67
2018-07-30T16:20:09.770Z,5.37
2018-07-30T16:22:21.958Z,5.22
2018-07-30T16:24:34.199Z,5.10
2018-07-30T16:26:46.427Z,5.50
2018-07-30T16:28:58.666Z,5.50
2018-07-30T16:31:10.851Z,5.67
2018-07-30T16:33:23.101Z,5.72
2018-07-30T16:35:35.310Z,4.95
2018-07-30T16:37:47.512Z,4.70
2018-07-30T16:39:59.759Z,5.12
2018-07-30T16:42:12.062Z,5.65
2018-07-30T16:44:24.368Z,5.37
2018-07-30T16:46:36.574Z,5.08
2018-07-30T16:48:48.883Z,5.00
2018-07-30T16:51:01.170Z,5.80
2018-07-30T16:55:31.362Z,5.47
2018-07-30T16:57:43.598Z,5.53
2018-07-30T16:59:55.847Z,4.92
2018-07-30T17:02:08.158Z,5.58
2018-07-30T17:04:20.429Z,4.80
2018-07-30T17:06:32.657Z,4.95
2018-07-30T17:08:44.920Z,5.42
2018-07-30T17:10:57.127Z,4.92
2018-07-30T17:13:09.371Z,5.90
2018-07-30T17:15:21.611Z,5.30
2018-07-30T17:17:33.821Z,5.45
2018-07-30T17:19:46.031Z,5.25
2018-07-30T17:21:58.269Z,5.53
2018-07-30T17:24:10.465Z,5.00
2018-07-30T17:26:22.750Z,6.33
2018-07-30T17:28:35.224Z,6.40
2018-07-30T17:30:47.688Z,6.80
2018-07-30T17:33:00.022Z,5.83
2018-07-30T17:35:12.304Z,5.37
2018-07-30T17:37:24.570Z,6.05
2018-07-30T17:39:37.155Z,6.15
2018-07-30T17:41:49.745Z,5.58
2018-07-30T17:44:02.352Z,5.17
2018-07-30T17:46:14.678Z,5.00
2018-07-30T17:48:27.181Z,4.40
2018-07-30T17:50:39.751Z,5.33
2018-07-30T17:52:52.323Z,5.05
2018-07-30T17:55:04.879Z,4.85
2018-07-30T17:57:17.446Z,4.72
2018-07-30T17:59:29.766Z,4.30
2018-07-30T18:01:42.112Z,5.10
2018-07-30T18:03:54.432Z,5.37
2018-07-30T18:06:06.699Z,4.70
2018-07-30T18:08:18.942Z,4.83
2018-07-30T18:10:31.204Z,6.22
2018-07-30T18:12:43.644Z,8.20
2018-07-30T18:14:55.890Z,6.45
2018-07-30T18:17:08.147Z,6.78
2018-07-30T18:19:20.447Z,6.92
2018-07-30T18:21:32.742Z,6.80
2018-07-30T18:23:44.961Z,6.42
2018-07-30T18:25:57.241Z,7.70
2018-07-30T18:28:09.546Z,7.03
2018-07-30T18:30:21.781Z,6.28
2018-07-30T18:32:34.039Z,6.37
2018-07-30T18:34:46.343Z,5.95
2018-07-30T18:36:58.593Z,6.37
2018-07-30T18:39:10.846Z,5.05
2018-07-30T18:41:23.050Z,6.55
2018-07-30T18:43:35.322Z,6.92
2018-07-30T18:45:47.539Z,5.53
2018-07-30T18:47:59.812Z,6.15
2018-07-30T18:50:12.030Z,6.10
2018-07-30T18:52:24.324Z,6.75
2018-07-30T18:54:36.678Z,6.97
2018-07-30T18:56:48.904Z,6.12
2018-07-30T18:59:01.166Z,7.37
2018-07-30T19:01:13.391Z,8.00
2018-07-30T19:03:25.682Z,7.70
2018-07-30T19:05:38.053Z,5.03
2018-07-30T19:07:50.402Z,6.80
2018-07-30T19:10:02.970Z,6.65
2018-07-30T19:12:15.171Z,6.83
2018-07-30T19:14:27.619Z,8.88
2018-07-30T19:16:39.942Z,6.90
2018-07-30T19:18:52.431Z,7.57
2018-07-30T19:21:04.974Z,6.63
2018-07-30T19:23:17.214Z,7.80
2018-07-30T19:25:29.436Z,7.50
2018-07-30T19:27:41.907Z,8.03
2018-07-30T19:29:54.469Z,7.17
2018-07-30T19:32:06.710Z,8.07
2018-07-30T19:34:18.945Z,7.50
2018-07-30T19:36:31.189Z,7.70
2018-07-30T19:38:43.734Z,6.90
2018-07-30T19:40:56.281Z,7.30
2018-07-30T19:43:08.567Z,6.50
2018-07-30T19:45:21.070Z,6.20
2018-07-30T19:47:33.551Z,6.27
2018-07-30T19:49:45.996Z,6.37
2018-07-30T19:51:58.251Z,5.83
2018-07-30T19:54:10.566Z,6.47
2018-07-30T19:56:22.842Z,7.03
2018-07-30T19:58:35.526Z,6.30
2018-07-30T20:00:47.820Z,6.43
2018-07-30T20:03:00.125Z,6.17
2018-07-30T20:05:12.630Z,6.23
2018-07-30T20:07:25.238Z,6.13
2018-07-30T20:09:37.750Z,5.57
2018-07-30T20:11:50.276Z,6.03
2018-07-30T20:14:02.564Z,6.37
2018-07-30T20:16:15.079Z,5.73
2018-07-30T20:18:27.351Z,6.20
2018-07-30T20:20:39.829Z,6.10
2018-07-30T20:22:52.372Z,5.20
2018-07-30T20:25:05.477Z,5.67
2018-07-30T20:27:17.770Z,5.63
2018-07-30T20:29:29.998Z,5.37
2018-07-30T20:31:42.471Z,4.83
2018-07-30T20:33:56.407Z,5.23
2018-07-30T20:36:08.637Z,5.57
2018-07-30T20:38:20.850Z,5.30
2018-07-30T20:40:33.059Z,5.50
2018-07-30T20:42:45.261Z,5.83
2018-07-30T20:44:57.563Z,5.47
2018-07-30T20:47:09.739Z,7.30
2018-07-30T20:49:22.050Z,6.83
2018-07-30T20:51:34.239Z,6.60
2018-07-30T20:53:46.493Z,5.63
2018-07-30T20:55:58.720Z,5.17
2018-07-30T20:58:10.958Z,5.30
2018-07-30T21:00:23.168Z,5.70
2018-07-30T21:02:35.424Z,6.20
2018-07-30T21:04:47.670Z,5.53
2018-07-30T21:06:59.895Z,5.93
2018-07-30T21:09:12.107Z,5.67
2018-07-30T21:11:24.350Z,5.13
2018-07-30T21:13:36.555Z,5.53
2018-07-30T21:15:48.838Z,5.73
2018-07-30T21:18:01.117Z,5.63
2018-07-30T21:20:13.377Z,5.87
2018-07-30T21:22:25.584Z,4.63
2018-07-30T21:24:37.838Z,5.00
2018-07-30T21:26:50.044Z,4.73
2018-07-30T21:29:02.304Z,4.83
2018-07-30T21:31:14.533Z,5.90
2018-07-30T21:33:26.880Z,5.87
2018-07-30T21:35:39.086Z,5.70
2018-07-30T21:37:51.578Z,5.57
2018-07-30T21:40:04.255Z,5.77
2018-07-30T21:42:16.486Z,5.60
2018-07-30T21:44:28.704Z,5.57
2018-07-30T21:46:41.924Z,4.90
2018-07-30T21:48:54.171Z,5.13
2018-07-30T21:51:06.607Z,5.53
2018-07-30T21:53:18.848Z,6.20
2018-07-30T21:55:31.455Z,4.50
2018-07-30T21:57:43.669Z,5.33
2018-07-30T21:59:55.960Z,5.20
2018-07-30T22:02:08.162Z,5.77
2018-07-30T22:04:20.410Z,5.93
2018-07-30T22:06:32.679Z,5.67
2018-07-30T22:08:45.000Z,5.50
2018-07-30T22:10:57.234Z,5.53
2018-07-30T22:13:09.434Z,5.93
2018-07-30T22:15:22.126Z,5.00
2018-07-30T22:17:34.419Z,5.20
2018-07-30T22:19:46.619Z,5.30
2018-07-30T22:21:58.824Z,5.33
2018-07-30T22:24:11.075Z,5.90
2018-07-30T22:26:23.332Z,6.30
2018-07-30T22:28:35.527Z,7.23
2018-07-30T22:30:47.817Z,7.10
2018-07-30T22:33:00.030Z,5.70
2018-07-30T22:35:12.256Z,5.40
2018-07-30T22:37:24.473Z,5.80
2018-07-30T22:39:36.711Z,5.30
2018-07-30T22:41:48.983Z,5.50
2018-07-30T22:44:01.226Z,5.93
2018-07-30T22:46:13.434Z,5.63
2018-07-30T22:48:25.623Z,6.30
2018-07-30T22:50:37.889Z,5.70
2018-07-30T22:52:50.571Z,5.60
2018-07-30T22:55:02.867Z,6.37
2018-07-30T22:57:15.078Z,6.37
2018-07-30T22:59:27.327Z,5.90
2018-07-30T23:01:39.644Z,5.77
2018-07-30T23:03:51.924Z,5.77
2018-07-30T23:06:04.171Z,5.83
2018-07-30T23:08:16.359Z,5.37
2018-07-30T23:10:28.806Z,5.87
2018-07-30T23:12:41.143Z,5.60
2018-07-30T23:14:53.355Z,6.47
2018-07-30T23:17:05.527Z,5.90
2018-07-30T23:19:17.735Z,5.30
2018-07-30T23:21:30.104Z,5.57
2018-07-30T23:23:42.331Z,5.70
2018-07-30T23:25:54.544Z,6.10
2018-07-30T23:28:06.731Z,5.67
2018-07-30T23:30:18.954Z,4.90
2018-07-30T23:32:31.157Z,6.00
2018-07-30T23:34:43.369Z,6.40
2018-07-30T23:36:55.606Z,5.67
2018-07-30T23:39:09.574Z,6.10
2018-07-30T23:41:21.821Z,5.20
2018-07-30T23:43:34.003Z,5.87
2018-07-30T23:45:46.191Z,5.90
2018-07-30T23:47:58.394Z,5.97
2018-07-30T23:50:10.594Z,5.33
2018-07-30T23:52:22.895Z,5.53
2018-07-30T23:54:35.119Z,5.70
2018-07-30T23:56:47.391Z,5.80
2018-07-30T23:58:59.589Z,6.00
